sensor_id;sensor_type;location;lat;lon;timestamp;pressure;altitude;pressure_sealevel;temperature;humidity
69855;BME280;57146;48.140;16.304;2023-04-04T00:00:28;100034.16;;;1.54;47.29
69855;BME280;57146;48.140;16.304;2023-04-04T00:02:55;100040.38;;;1.53;47.10
69855;BME280;57146;48.140;16.304;2023-04-04T00:05:22;100040.03;;;1.50;47.29
69855;BME280;57146;48.140;16.304;2023-04-04T00:07:49;100039.44;;;1.48;47.66
69855;BME280;57146;48.140;16.304;2023-04-04T00:10:18;100047.66;;;1.44;48.06
69855;BME280;57146;48.140;16.304;2023-04-04T00:12:45;100043.16;;;1.40;47.31
69855;BME280;57146;48.140;16.304;2023-04-04T00:15:12;100043.34;;;1.38;47.79
69855;BME280;57146;48.140;16.304;2023-04-04T00:17:39;100036.22;;;1.34;47.36
69855;BME280;57146;48.140;16.304;2023-04-04T00:20:06;100045.25;;;1.31;47.42
69855;BME280;57146;48.140;16.304;2023-04-04T00:22:33;100037.69;;;1.30;48.09
69855;BME280;57146;48.140;16.304;2023-04-04T00:25:00;100040.50;;;1.28;47.94
69855;BME280;57146;48.140;16.304;2023-04-04T00:27:28;100041.31;;;1.29;47.95
69855;BME280;57146;48.140;16.304;2023-04-04T00:29:55;100038.72;;;1.29;47.67
69855;BME280;57146;48.140;16.304;2023-04-04T00:32:21;100043.09;;;1.28;47.88
69855;BME280;57146;48.140;16.304;2023-04-04T00:34:52;100036.56;;;1.26;47.58
69855;BME280;57146;48.140;16.304;2023-04-04T00:37:19;100031.78;;;1.23;47.70
69855;BME280;57146;48.140;16.304;2023-04-04T00:39:47;100026.25;;;1.19;48.56
69855;BME280;57146;48.140;16.304;2023-04-04T00:42:16;100033.25;;;1.18;47.59
69855;BME280;57146;48.140;16.304;2023-04-04T00:44:43;100033.44;;;1.17;48.49
69855;BME280;57146;48.140;16.304;2023-04-04T00:47:12;100038.88;;;1.15;48.97
69855;BME280;57146;48.140;16.304;2023-04-04T00:49:38;100043.03;;;1.16;48.34
69855;BME280;57146;48.140;16.304;2023-04-04T00:52:06;100035.69;;;1.13;48.49
69855;BME280;57146;48.140;16.304;2023-04-04T00:54:34;100041.34;;;1.10;49.51
69855;BME280;57146;48.140;16.304;2023-04-04T00:57:03;100036.16;;;1.10;49.19
69855;BME280;57146;48.140;16.304;2023-04-04T00:59:34;100041.53;;;1.09;49.94
69855;BME280;57146;48.140;16.304;2023-04-04T01:02:02;100043.13;;;1.10;49.38
69855;BME280;57146;48.140;16.304;2023-04-04T01:04:29;100046.94;;;1.07;49.52
69855;BME280;57146;48.140;16.304;2023-04-04T01:06:56;100043.34;;;1.08;49.95
69855;BME280;57146;48.140;16.304;2023-04-04T01:09:23;100051.56;;;1.05;50.17
69855;BME280;57146;48.140;16.304;2023-04-04T01:11:51;100044.00;;;1.04;50.46
69855;BME280;57146;48.140;16.304;2023-04-04T01:14:19;100046.00;;;1.02;50.29
69855;BME280;57146;48.140;16.304;2023-04-04T01:16:48;100047.03;;;1.01;50.55
69855;BME280;57146;48.140;16.304;2023-04-04T01:19:31;100047.03;;;1.01;51.17
69855;BME280;57146;48.140;16.304;2023-04-04T01:22:05;100040.47;;;0.98;50.97
69855;BME280;57146;48.140;16.304;2023-04-04T01:24:34;100045.53;;;0.93;50.84
69855;BME280;57146;48.140;16.304;2023-04-04T01:27:04;100047.88;;;0.94;50.04
69855;BME280;57146;48.140;16.304;2023-04-04T01:29:35;100037.16;;;0.91;50.69
69855;BME280;57146;48.140;16.304;2023-04-04T01:32:08;100042.13;;;0.92;50.15
69855;BME280;57146;48.140;16.304;2023-04-04T01:34:45;100043.13;;;0.91;50.79
69855;BME280;57146;48.140;16.304;2023-04-04T01:37:22;100047.09;;;0.94;50.21
69855;BME280;57146;48.140;16.304;2023-04-04T01:39:58;100045.28;;;0.94;50.14
69855;BME280;57146;48.140;16.304;2023-04-04T01:42:32;100049.91;;;0.92;50.24
69855;BME280;57146;48.140;16.304;2023-04-04T01:44:59;100047.88;;;0.94;50.34
69855;BME280;57146;48.140;16.304;2023-04-04T01:47:41;100051.28;;;0.95;50.90
69855;BME280;57146;48.140;16.304;2023-04-04T01:50:15;100051.28;;;0.95;50.99
69855;BME280;57146;48.140;16.304;2023-04-04T01:52:42;100043.72;;;0.93;49.66
69855;BME280;57146;48.140;16.304;2023-04-04T01:55:09;100046.31;;;0.93;50.45
69855;BME280;57146;48.140;16.304;2023-04-04T01:57:36;100041.13;;;0.93;50.32
69855;BME280;57146;48.140;16.304;2023-04-04T02:00:03;100043.91;;;0.92;50.72
69855;BME280;57146;48.140;16.304;2023-04-04T02:02:41;100037.75;;;0.93;50.42
69855;BME280;57146;48.140;16.304;2023-04-04T02:05:10;100038.31;;;0.95;50.77
69855;BME280;57146;48.140;16.304;2023-04-04T02:07:37;100045.28;;;0.94;50.11
69855;BME280;57146;48.140;16.304;2023-04-04T02:10:12;100040.69;;;0.97;50.07
69855;BME280;57146;48.140;16.304;2023-04-04T02:12:43;100023.78;;;0.94;49.94
69855;BME280;57146;48.140;16.304;2023-04-04T02:15:10;100033.72;;;0.97;49.44
69855;BME280;57146;48.140;16.304;2023-04-04T02:17:39;100023.78;;;0.94;49.95
69855;BME280;57146;48.140;16.304;2023-04-04T02:20:07;100029.38;;;0.91;50.33
69855;BME280;57146;48.140;16.304;2023-04-04T02:22:35;100035.16;;;0.93;50.37
69855;BME280;57146;48.140;16.304;2023-04-04T02:25:02;100023.97;;;0.92;49.87
69855;BME280;57146;48.140;16.304;2023-04-04T02:27:29;100017.00;;;0.93;49.96
69855;BME280;57146;48.140;16.304;2023-04-04T02:29:56;100027.56;;;0.91;49.82
69855;BME280;57146;48.140;16.304;2023-04-04T02:32:24;100021.84;;;0.89;50.67
69855;BME280;57146;48.140;16.304;2023-04-04T02:34:52;100033.19;;;0.88;50.13
69855;BME280;57146;48.140;16.304;2023-04-04T02:37:20;100030.25;;;0.85;50.09
69855;BME280;57146;48.140;16.304;2023-04-04T02:39:50;100023.34;;;0.79;50.45
69855;BME280;57146;48.140;16.304;2023-04-04T02:42:17;100021.56;;;0.79;50.84
69855;BME280;57146;48.140;16.304;2023-04-04T02:44:44;100029.75;;;0.76;50.15
69855;BME280;57146;48.140;16.304;2023-04-04T02:47:15;100033.00;;;0.71;50.33
69855;BME280;57146;48.140;16.304;2023-04-04T02:49:44;100026.22;;;0.70;50.42
69855;BME280;57146;48.140;16.304;2023-04-04T02:52:13;100032.41;;;0.69;50.62
69855;BME280;57146;48.140;16.304;2023-04-04T02:54:43;100023.84;;;0.69;50.35
69855;BME280;57146;48.140;16.304;2023-04-04T02:57:19;100029.09;;;0.62;51.50
69855;BME280;57146;48.140;16.304;2023-04-04T02:59:48;100028.75;;;0.59;51.16
69855;BME280;57146;48.140;16.304;2023-04-04T03:02:23;100024.78;;;0.56;51.28
69855;BME280;57146;48.140;16.304;2023-04-04T03:04:51;100024.22;;;0.54;50.89
69855;BME280;57146;48.140;16.304;2023-04-04T03:07:19;100018.44;;;0.52;51.15
69855;BME280;57146;48.140;16.304;2023-04-04T03:09:52;100018.88;;;0.49;51.08
69855;BME280;57146;48.140;16.304;2023-04-04T03:12:19;100017.72;;;0.45;51.35
69855;BME280;57146;48.140;16.304;2023-04-04T03:14:49;100009.81;;;0.40;52.07
69855;BME280;57146;48.140;16.304;2023-04-04T03:17:16;100008.66;;;0.36;52.48
69855;BME280;57146;48.140;16.304;2023-04-04T03:19:44;100001.31;;;0.33;52.63
69855;BME280;57146;48.140;16.304;2023-04-04T03:22:12;99997.94;;;0.32;52.25
69855;BME280;57146;48.140;16.304;2023-04-04T03:24:39;99986.97;;;0.30;52.33
69855;BME280;57146;48.140;16.304;2023-04-04T03:27:06;99988.19;;;0.28;52.85
69855;BME280;57146;48.140;16.304;2023-04-04T03:29:33;99988.63;;;0.24;52.36
69855;BME280;57146;48.140;16.304;2023-04-04T03:32:01;99984.44;;;0.23;52.97
69855;BME280;57146;48.140;16.304;2023-04-04T03:34:28;99981.88;;;0.23;52.57
69855;BME280;57146;48.140;16.304;2023-04-04T03:36:55;99975.13;;;0.22;52.51
69855;BME280;57146;48.140;16.304;2023-04-04T03:39:26;99977.47;;;0.24;52.73
69855;BME280;57146;48.140;16.304;2023-04-04T03:41:55;99973.31;;;0.23;53.03
69855;BME280;57146;48.140;16.304;2023-04-04T03:44:22;99987.84;;;0.24;52.71
69855;BME280;57146;48.140;16.304;2023-04-04T03:46:50;99983.66;;;0.23;52.89
69855;BME280;57146;48.140;16.304;2023-04-04T03:49:18;99978.25;;;0.24;52.77
69855;BME280;57146;48.140;16.304;2023-04-04T03:51:45;99976.91;;;0.22;52.61
69855;BME280;57146;48.140;16.304;2023-04-04T03:54:14;99978.13;;;0.19;52.30
69855;BME280;57146;48.140;16.304;2023-04-04T03:56:42;99973.16;;;0.18;53.03
69855;BME280;57146;48.140;16.304;2023-04-04T03:59:09;99978.97;;;0.13;52.99
69855;BME280;57146;48.140;16.304;2023-04-04T04:01:36;99979.84;;;0.07;53.19
69855;BME280;57146;48.140;16.304;2023-04-04T04:04:28;99973.06;;;0.06;52.63
69855;BME280;57146;48.140;16.304;2023-04-04T04:06:55;99968.53;;;0.02;53.13
69855;BME280;57146;48.140;16.304;2023-04-04T04:09:22;99975.13;;;-0.03;53.12
69855;BME280;57146;48.140;16.304;2023-04-04T04:12:13;99975.75;;;-0.07;52.98
69855;BME280;57146;48.140;16.304;2023-04-04T04:14:40;99970.38;;;-0.06;53.29
69855;BME280;57146;48.140;16.304;2023-04-04T04:17:07;99973.16;;;-0.07;52.81
69855;BME280;57146;48.140;16.304;2023-04-04T04:19:34;99972.81;;;-0.11;53.67
69855;BME280;57146;48.140;16.304;2023-04-04T04:22:03;99966.63;;;-0.10;53.27
69855;BME280;57146;48.140;16.304;2023-04-04T04:24:31;99966.06;;;-0.12;53.28
69855;BME280;57146;48.140;16.304;2023-04-04T04:27:02;99964.06;;;-0.10;53.49
69855;BME280;57146;48.140;16.304;2023-04-04T04:29:30;99965.25;;;-0.12;53.16
69855;BME280;57146;48.140;16.304;2023-04-04T04:31:57;99966.28;;;-0.13;53.79
69855;BME280;57146;48.140;16.304;2023-04-04T04:34:28;99972.25;;;-0.13;53.34
69855;BME280;57146;48.140;16.304;2023-04-04T04:36:58;99974.81;;;-0.13;53.33
69855;BME280;57146;48.140;16.304;2023-04-04T04:39:33;99968.50;;;-0.17;53.69
69855;BME280;57146;48.140;16.304;2023-04-04T04:42:12;99973.66;;;-0.17;53.78
69855;BME280;57146;48.140;16.304;2023-04-04T04:44:46;99975.03;;;-0.14;53.14
69855;BME280;57146;48.140;16.304;2023-04-04T04:47:14;99982.00;;;-0.15;53.53
69855;BME280;57146;48.140;16.304;2023-04-04T04:49:42;99991.13;;;-0.12;53.42
69855;BME280;57146;48.140;16.304;2023-04-04T04:52:10;99990.50;;;-0.08;53.37
69855;BME280;57146;48.140;16.304;2023-04-04T04:54:41;99992.09;;;-0.07;53.81
69855;BME280;57146;48.140;16.304;2023-04-04T04:57:35;99984.28;;;0.00;52.92
69855;BME280;57146;48.140;16.304;2023-04-04T05:00:12;99994.06;;;-0.02;53.12
69855;BME280;57146;48.140;16.304;2023-04-04T05:02:44;99995.84;;;-0.03;52.88
69855;BME280;57146;48.140;16.304;2023-04-04T05:05:14;99996.63;;;-0.02;53.22
69855;BME280;57146;48.140;16.304;2023-04-04T05:07:44;99999.16;;;0.05;56.08
69855;BME280;57146;48.140;16.304;2023-04-04T05:10:12;99992.19;;;0.05;53.10
69855;BME280;57146;48.140;16.304;2023-04-04T05:12:44;100002.56;;;0.05;52.46
69855;BME280;57146;48.140;16.304;2023-04-04T05:15:18;100001.91;;;0.10;52.71
69855;BME280;57146;48.140;16.304;2023-04-04T05:17:49;100002.91;;;0.09;52.76
69855;BME280;57146;48.140;16.304;2023-04-04T05:20:17;100003.88;;;0.14;53.43
69855;BME280;57146;48.140;16.304;2023-04-04T05:22:47;100008.78;;;0.22;52.35
69855;BME280;57146;48.140;16.304;2023-04-04T05:25:24;100002.16;;;0.27;52.08
69855;BME280;57146;48.140;16.304;2023-04-04T05:27:52;100010.66;;;0.34;51.25
69855;BME280;57146;48.140;16.304;2023-04-04T05:30:20;100002.47;;;0.37;50.76
69855;BME280;57146;48.140;16.304;2023-04-04T05:33:00;100012.75;;;0.43;50.48
69855;BME280;57146;48.140;16.304;2023-04-04T05:35:29;100015.34;;;0.43;49.59
69855;BME280;57146;48.140;16.304;2023-04-04T05:37:58;100016.06;;;0.51;48.92
69855;BME280;57146;48.140;16.304;2023-04-04T05:40:29;100015.78;;;0.59;48.85
69855;BME280;57146;48.140;16.304;2023-04-04T05:43:04;100020.66;;;0.67;49.64
69855;BME280;57146;48.140;16.304;2023-04-04T05:45:42;100022.84;;;0.70;49.54
69855;BME280;57146;48.140;16.304;2023-04-04T05:48:10;100029.88;;;0.81;48.68
69855;BME280;57146;48.140;16.304;2023-04-04T05:50:47;100030.41;;;0.90;48.73
69855;BME280;57146;48.140;16.304;2023-04-04T05:53:16;100043.13;;;0.91;48.37
69855;BME280;57146;48.140;16.304;2023-04-04T05:55:49;100040.34;;;0.93;47.90
69855;BME280;57146;48.140;16.304;2023-04-04T05:58:17;100045.53;;;0.93;48.32
69855;BME280;57146;48.140;16.304;2023-04-04T06:00:51;100046.31;;;0.93;47.56
69855;BME280;57146;48.140;16.304;2023-04-04T06:03:18;100045.66;;;0.98;47.80
69855;BME280;57146;48.140;16.304;2023-04-04T06:05:50;100047.81;;;1.01;48.43
69855;BME280;57146;48.140;16.304;2023-04-04T06:08:18;100041.69;;;1.14;47.72
69855;BME280;57146;48.140;16.304;2023-04-04T06:10:45;100041.38;;;1.22;48.28
69855;BME280;57146;48.140;16.304;2023-04-04T06:13:12;100043.91;;;1.29;47.43
69855;BME280;57146;48.140;16.304;2023-04-04T06:15:43;100047.25;;;1.17;47.01
69855;BME280;57146;48.140;16.304;2023-04-04T06:18:10;100050.03;;;1.16;47.36
69855;BME280;57146;48.140;16.304;2023-04-04T06:20:37;100054.91;;;1.24;47.87
69855;BME280;57146;48.140;16.304;2023-04-04T06:23:05;100048.41;;;1.33;48.13
69855;BME280;57146;48.140;16.304;2023-04-04T06:25:36;100040.41;;;1.35;48.21
69855;BME280;57146;48.140;16.304;2023-04-04T06:28:03;100046.28;;;1.42;47.53
69855;BME280;57146;48.140;16.304;2023-04-04T06:30:34;100037.72;;;1.41;46.48
69855;BME280;57146;48.140;16.304;2023-04-04T06:33:04;100043.25;;;1.45;47.36
69855;BME280;57146;48.140;16.304;2023-04-04T06:35:33;100035.72;;;1.43;47.18
69855;BME280;57146;48.140;16.304;2023-04-04T06:38:00;100041.16;;;1.54;47.10
69855;BME280;57146;48.140;16.304;2023-04-04T06:40:27;100039.72;;;1.70;47.57
69855;BME280;57146;48.140;16.304;2023-04-04T06:42:55;100037.41;;;1.91;47.19
69855;BME280;57146;48.140;16.304;2023-04-04T06:45:25;100039.69;;;2.00;47.44
69855;BME280;57146;48.140;16.304;2023-04-04T06:47:55;100045.22;;;2.03;45.59
69855;BME280;57146;48.140;16.304;2023-04-04T06:50:22;100046.47;;;2.01;45.61
69855;BME280;57146;48.140;16.304;2023-04-04T06:52:49;100043.53;;;2.09;46.56
69855;BME280;57146;48.140;16.304;2023-04-04T06:55:17;100034.75;;;2.10;45.62
69855;BME280;57146;48.140;16.304;2023-04-04T06:57:44;100046.47;;;2.01;45.76
69855;BME280;57146;48.140;16.304;2023-04-04T07:00:11;100044.94;;;1.81;46.09
69855;BME280;57146;48.140;16.304;2023-04-04T07:02:38;100045.38;;;1.66;46.61
69855;BME280;57146;48.140;16.304;2023-04-04T07:05:05;100041.13;;;1.84;46.66
69855;BME280;57146;48.140;16.304;2023-04-04T07:07:32;100031.78;;;1.95;46.78
69855;BME280;57146;48.140;16.304;2023-04-04T07:09:59;100043.06;;;2.00;45.84
69855;BME280;57146;48.140;16.304;2023-04-04T07:12:26;100043.88;;;2.12;46.08
69855;BME280;57146;48.140;16.304;2023-04-04T07:14:59;100035.97;;;2.31;45.26
69855;BME280;57146;48.140;16.304;2023-04-04T07:17:31;100028.75;;;2.33;46.02
69855;BME280;57146;48.140;16.304;2023-04-04T07:19:58;100030.53;;;2.44;45.09
69855;BME280;57146;48.140;16.304;2023-04-04T07:22:24;100029.31;;;2.47;44.89
69855;BME280;57146;48.140;16.304;2023-04-04T07:24:51;100032.59;;;2.42;45.83
69855;BME280;57146;48.140;16.304;2023-04-04T07:27:18;100028.16;;;2.66;44.80
69855;BME280;57146;48.140;16.304;2023-04-04T07:29:45;100022.94;;;2.66;44.45
69855;BME280;57146;48.140;16.304;2023-04-04T07:32:12;100032.13;;;2.45;44.72
69855;BME280;57146;48.140;16.304;2023-04-04T07:34:38;100027.59;;;2.52;44.53
69855;BME280;57146;48.140;16.304;2023-04-04T07:37:05;100024.22;;;2.63;49.17
69855;BME280;57146;48.140;16.304;2023-04-04T07:39:32;100032.66;;;2.82;45.37
69855;BME280;57146;48.140;16.304;2023-04-04T07:41:59;100031.91;;;2.99;45.03
69855;BME280;57146;48.140;16.304;2023-04-04T07:44:26;100027.31;;;2.89;47.33
69855;BME280;57146;48.140;16.304;2023-04-04T07:46:53;100028.66;;;2.92;47.24
69855;BME280;57146;48.140;16.304;2023-04-04T07:49:34;100031.84;;;2.82;43.20
69855;BME280;57146;48.140;16.304;2023-04-04T07:52:01;100035.59;;;2.62;43.89
69855;BME280;57146;48.140;16.304;2023-04-04T07:54:28;100029.97;;;2.66;43.47
69855;BME280;57146;48.140;16.304;2023-04-04T07:56:55;100039.00;;;2.63;43.34
69855;BME280;57146;48.140;16.304;2023-04-04T07:59:22;100040.34;;;2.66;44.39
69855;BME280;57146;48.140;16.304;2023-04-04T08:01:49;100040.34;;;2.66;44.13
69855;BME280;57146;48.140;16.304;2023-04-04T08:04:15;100041.28;;;2.48;43.54
69855;BME280;57146;48.140;16.304;2023-04-04T08:06:42;100042.19;;;2.30;44.33
69855;BME280;57146;48.140;16.304;2023-04-04T08:09:10;100032.16;;;2.10;44.81
69855;BME280;57146;48.140;16.304;2023-04-04T08:11:36;100035.19;;;2.42;44.37
69855;BME280;57146;48.140;16.304;2023-04-04T08:14:03;100032.47;;;2.60;43.99
69855;BME280;57146;48.140;16.304;2023-04-04T08:16:30;100043.75;;;2.66;43.62
69855;BME280;57146;48.140;16.304;2023-04-04T08:18:57;100050.09;;;2.58;44.61
69855;BME280;57146;48.140;16.304;2023-04-04T08:21:25;100042.97;;;2.54;45.89
69855;BME280;57146;48.140;16.304;2023-04-04T08:23:52;100040.75;;;2.98;48.42
69855;BME280;57146;48.140;16.304;2023-04-04T08:26:19;100034.91;;;3.19;45.68
69855;BME280;57146;48.140;16.304;2023-04-04T08:28:47;100030.59;;;2.96;41.96
69855;BME280;57146;48.140;16.304;2023-04-04T08:31:13;100027.81;;;2.74;42.77
69855;BME280;57146;48.140;16.304;2023-04-04T08:33:41;100032.78;;;2.64;43.83
69855;BME280;57146;48.140;16.304;2023-04-04T08:36:14;100028.25;;;2.71;43.67
69855;BME280;57146;48.140;16.304;2023-04-04T08:38:41;100027.75;;;2.98;43.34
69855;BME280;57146;48.140;16.304;2023-04-04T08:41:08;100020.84;;;3.03;42.77
69855;BME280;57146;48.140;16.304;2023-04-04T08:43:37;100025.19;;;2.86;42.33
69855;BME280;57146;48.140;16.304;2023-04-04T08:46:04;100014.34;;;2.66;42.27
69855;BME280;57146;48.140;16.304;2023-04-04T08:48:36;100025.19;;;2.86;43.02
69855;BME280;57146;48.140;16.304;2023-04-04T08:51:05;100022.34;;;3.16;42.83
69855;BME280;57146;48.140;16.304;2023-04-04T08:53:34;100018.00;;;3.33;41.78
69855;BME280;57146;48.140;16.304;2023-04-04T08:56:02;100018.69;;;3.29;42.72
69855;BME280;57146;48.140;16.304;2023-04-04T08:58:29;100012.19;;;3.15;42.16
69855;BME280;57146;48.140;16.304;2023-04-04T09:00:56;99996.41;;;3.04;41.78
69855;BME280;57146;48.140;16.304;2023-04-04T09:03:26;100013.53;;;2.88;41.74
69855;BME280;57146;48.140;16.304;2023-04-04T09:05:55;100003.22;;;2.94;42.63
69855;BME280;57146;48.140;16.304;2023-04-04T09:08:23;99995.19;;;3.24;42.72
69855;BME280;57146;48.140;16.304;2023-04-04T09:10:51;99994.34;;;3.52;41.75
69855;BME280;57146;48.140;16.304;2023-04-04T09:13:18;99990.59;;;3.59;40.99
69855;BME280;57146;48.140;16.304;2023-04-04T09:15:47;99982.25;;;3.74;40.99
69855;BME280;57146;48.140;16.304;2023-04-04T09:18:15;99985.41;;;3.59;41.57
69855;BME280;57146;48.140;16.304;2023-04-04T09:20:43;99979.69;;;3.79;41.21
69855;BME280;57146;48.140;16.304;2023-04-04T09:23:18;99985.69;;;3.97;40.50
69855;BME280;57146;48.140;16.304;2023-04-04T09:25:52;99984.75;;;4.03;41.03
69855;BME280;57146;48.140;16.304;2023-04-04T09:28:22;99981.91;;;4.04;38.52
69855;BME280;57146;48.140;16.304;2023-04-04T09:30:50;99984.19;;;4.01;39.51
69855;BME280;57146;48.140;16.304;2023-04-04T09:33:19;99978.28;;;3.89;38.47
69855;BME280;57146;48.140;16.304;2023-04-04T09:36:12;99973.78;;;3.84;40.09
69855;BME280;57146;48.140;16.304;2023-04-04T09:38:41;99972.63;;;3.92;40.38
69855;BME280;57146;48.140;16.304;2023-04-04T09:41:08;99958.75;;;4.08;42.33
69855;BME280;57146;48.140;16.304;2023-04-04T09:43:36;99964.72;;;4.25;40.34
69855;BME280;57146;48.140;16.304;2023-04-04T09:46:05;99979.28;;;4.04;40.46
69855;BME280;57146;48.140;16.304;2023-04-04T09:48:33;99983.72;;;3.87;41.43
69855;BME280;57146;48.140;16.304;2023-04-04T09:51:04;99965.03;;;3.73;40.62
69855;BME280;57146;48.140;16.304;2023-04-04T09:53:34;99985.88;;;3.56;41.54
69855;BME280;57146;48.140;16.304;2023-04-04T09:56:02;99970.78;;;3.58;41.44
69855;BME280;57146;48.140;16.304;2023-04-04T09:58:30;99971.88;;;3.63;40.30
69855;BME280;57146;48.140;16.304;2023-04-04T10:01:00;99956.75;;;3.43;40.72
69855;BME280;57146;48.140;16.304;2023-04-04T10:03:28;99971.03;;;3.57;41.60
69855;BME280;57146;48.140;16.304;2023-04-04T10:06:00;99961.16;;;3.59;40.91
69855;BME280;57146;48.140;16.304;2023-04-04T10:08:31;99970.31;;;3.62;40.75
69855;BME280;57146;48.140;16.304;2023-04-04T10:11:00;99964.88;;;3.46;40.65
69855;BME280;57146;48.140;16.304;2023-04-04T10:13:38;99970.47;;;3.38;41.13
69855;BME280;57146;48.140;16.304;2023-04-04T10:16:07;99958.63;;;3.47;40.71
69855;BME280;57146;48.140;16.304;2023-04-04T10:18:35;99958.22;;;3.55;44.49
69855;BME280;57146;48.140;16.304;2023-04-04T10:21:06;99957.69;;;3.53;39.62
69855;BME280;57146;48.140;16.304;2023-04-04T10:23:39;99958.88;;;3.63;39.46
69855;BME280;57146;48.140;16.304;2023-04-04T10:26:07;99955.72;;;3.77;40.26
69855;BME280;57146;48.140;16.304;2023-04-04T10:28:34;99953.75;;;3.84;38.88
69855;BME280;57146;48.140;16.304;2023-04-04T10:31:16;99948.53;;;3.84;39.24
69855;BME280;57146;48.140;16.304;2023-04-04T10:36:23;99945.13;;;3.84;38.41
69855;BME280;57146;48.140;16.304;2023-04-04T10:41:52;99949.22;;;3.97;38.40
69855;BME280;57146;48.140;16.304;2023-04-04T10:44:37;99948.28;;;3.86;40.25
69855;BME280;57146;48.140;16.304;2023-04-04T10:49:46;99952.66;;;3.64;40.27
69855;BME280;57146;48.140;16.304;2023-04-04T10:52:15;99935.75;;;3.66;42.93
69855;BME280;57146;48.140;16.304;2023-04-04T10:54:44;99942.53;;;3.84;43.67
69855;BME280;57146;48.140;16.304;2023-04-04T10:57:14;99929.13;;;3.92;40.03
69855;BME280;57146;48.140;16.304;2023-04-04T11:00:00;99935.84;;;3.88;39.98
69855;BME280;57146;48.140;16.304;2023-04-04T11:02:57;99925.81;;;3.80;39.94
69855;BME280;57146;48.140;16.304;2023-04-04T11:05:34;99914.91;;;3.83;40.42
69855;BME280;57146;48.140;16.304;2023-04-04T11:08:04;99924.91;;;3.91;39.08
69855;BME280;57146;48.140;16.304;2023-04-04T11:10:41;99922.72;;;4.00;40.20
69855;BME280;57146;48.140;16.304;2023-04-04T11:16:04;99921.13;;;3.99;39.78
69855;BME280;57146;48.140;16.304;2023-04-04T11:21:05;99910.44;;;3.78;39.72
69855;BME280;57146;48.140;16.304;2023-04-04T11:31:26;99887.88;;;4.28;37.53
69855;BME280;57146;48.140;16.304;2023-04-04T11:34:14;99879.59;;;4.31;38.43
69855;BME280;57146;48.140;16.304;2023-04-04T11:42:00;99860.25;;;4.49;38.92
69855;BME280;57146;48.140;16.304;2023-04-04T11:44:28;99844.16;;;4.57;37.70
69855;BME280;57146;48.140;16.304;2023-04-04T11:49:34;99837.59;;;4.54;37.69
69855;BME280;57146;48.140;16.304;2023-04-04T11:52:07;99834.78;;;4.61;36.81
69855;BME280;57146;48.140;16.304;2023-04-04T11:54:35;99838.69;;;4.59;35.49
69855;BME280;57146;48.140;16.304;2023-04-04T11:57:05;99828.81;;;4.61;36.26
69855;BME280;57146;48.140;16.304;2023-04-04T11:59:32;99818.97;;;4.68;36.00
69855;BME280;57146;48.140;16.304;2023-04-04T12:02:25;99821.41;;;4.79;37.37
69855;BME280;57146;48.140;16.304;2023-04-04T12:04:52;99801.69;;;4.94;36.93
69855;BME280;57146;48.140;16.304;2023-04-04T12:07:19;99799.22;;;5.09;36.95
69855;BME280;57146;48.140;16.304;2023-04-04T12:09:46;99801.06;;;5.14;37.15
69855;BME280;57146;48.140;16.304;2023-04-04T12:12:14;99809.25;;;5.27;37.33
69855;BME280;57146;48.140;16.304;2023-04-04T12:14:42;99788.59;;;5.21;36.61
69855;BME280;57146;48.140;16.304;2023-04-04T12:17:10;99784.13;;;5.16;37.02
69855;BME280;57146;48.140;16.304;2023-04-04T12:19:39;99795.22;;;5.34;36.43
69855;BME280;57146;48.140;16.304;2023-04-04T12:22:06;99787.34;;;5.28;36.36
69855;BME280;57146;48.140;16.304;2023-04-04T12:24:35;99782.69;;;5.36;37.22
69855;BME280;57146;48.140;16.304;2023-04-04T12:27:02;99781.19;;;5.45;35.88
69855;BME280;57146;48.140;16.304;2023-04-04T12:29:32;99785.91;;;5.48;36.42
69855;BME280;57146;48.140;16.304;2023-04-04T12:32:00;99800.25;;;5.50;36.40
69855;BME280;57146;48.140;16.304;2023-04-04T12:34:30;99790.56;;;5.46;36.14
69855;BME280;57146;48.140;16.304;2023-04-04T12:37:00;99785.63;;;5.44;34.85
69855;BME280;57146;48.140;16.304;2023-04-04T12:39:28;99767.06;;;5.46;35.16
69855;BME280;57146;48.140;16.304;2023-04-04T12:42:00;99771.47;;;5.40;36.13
69855;BME280;57146;48.140;16.304;2023-04-04T12:44:37;99769.66;;;5.41;35.42
69855;BME280;57146;48.140;16.304;2023-04-04T12:47:06;99767.28;;;5.34;36.11
69855;BME280;57146;48.140;16.304;2023-04-04T12:52:16;99762.63;;;5.41;38.89
69855;BME280;57146;48.140;16.304;2023-04-04T12:54:44;99764.25;;;5.58;36.04
69855;BME280;57146;48.140;16.304;2023-04-04T12:57:20;99756.97;;;5.60;36.11
69855;BME280;57146;48.140;16.304;2023-04-04T12:59:49;99774.75;;;5.63;35.95
69855;BME280;57146;48.140;16.304;2023-04-04T13:02:17;99760.06;;;5.51;35.82
69855;BME280;57146;48.140;16.304;2023-04-04T13:04:52;99760.91;;;5.62;36.10
69855;BME280;57146;48.140;16.304;2023-04-04T13:07:44;99763.31;;;5.79;35.45
69855;BME280;57146;48.140;16.304;2023-04-04T13:10:12;99757.94;;;6.06;39.10
69855;BME280;57146;48.140;16.304;2023-04-04T13:12:58;99750.41;;;6.20;35.44
69855;BME280;57146;48.140;16.304;2023-04-04T13:18:16;99739.97;;;6.30;35.39
69855;BME280;57146;48.140;16.304;2023-04-04T13:20:47;99748.34;;;6.37;35.88
69855;BME280;57146;48.140;16.304;2023-04-04T13:23:14;99740.47;;;6.32;34.07
69855;BME280;57146;48.140;16.304;2023-04-04T13:25:42;99760.06;;;6.19;34.02
69855;BME280;57146;48.140;16.304;2023-04-04T13:28:10;99751.44;;;6.09;34.40
69855;BME280;57146;48.140;16.304;2023-04-04T13:30:40;99741.19;;;5.97;34.09
69855;BME280;57146;48.140;16.304;2023-04-04T13:33:07;99734.84;;;5.83;33.93
69855;BME280;57146;48.140;16.304;2023-04-04T13:35:37;99746.63;;;5.85;34.08
69855;BME280;57146;48.140;16.304;2023-04-04T13:38:04;99737.72;;;5.81;34.60
69855;BME280;57146;48.140;16.304;2023-04-04T13:40:33;99738.22;;;5.83;34.81